Time;durP1;ratioP1;P1;durP2;ratioP2;P2;SDS_P1;SDS_P2;PMS_P1;PMS_P2;Temp;Humidity;BMP_temperature;BMP_pressure;BME280_temperature;BME280_humidity;BME280_pressure;Samples;Min_cycle;Max_cycle;Signal;HPM_P1;HPM_P2
2022/04/06 00:00:58;;;;;;;0.40;0.38;;;17.30;33.10;19.90;93295.00;;;;10421456;28;45439;-63
2022/04/06 00:05:58;;;;;;;0.50;0.40;;;17.30;33.20;19.90;93297.00;;;;10439135;28;45295;-64
2022/04/06 00:10:59;;;;;;;0.77;0.47;;;17.30;33.30;19.90;93304.00;;;;10421201;28;45608;-63
2022/04/06 00:16:01;;;;;;;0.25;0.25;;;17.20;33.30;19.90;93292.00;;;;10421043;28;45405;-64
2022/04/06 00:21:02;;;;;;;0.60;0.40;;;17.30;33.30;19.90;93286.00;;;;10421128;28;46436;-64
2022/04/06 00:26:03;;;;;;;1.02;0.63;;;17.20;33.30;19.90;93294.00;;;;10404278;28;47118;-64
2022/04/06 00:31:04;;;;;;;0.45;0.30;;;17.20;33.30;19.90;93294.00;;;;10420183;28;47210;-64
2022/04/06 00:36:05;;;;;;;0.30;0.20;;;17.20;33.30;19.90;93291.00;;;;10420207;28;47251;-63
2022/04/06 00:41:05;;;;;;;0.73;0.38;;;17.20;33.40;19.90;93294.00;;;;10403493;28;48116;-65
2022/04/06 00:46:06;;;;;;;0.50;0.35;;;17.20;33.40;19.80;93286.00;;;;10419804;28;47041;-63
2022/04/06 00:51:06;;;;;;;0.57;0.30;;;17.20;33.50;19.80;93282.00;;;;10419560;28;47518;-66
2022/04/06 00:56:07;;;;;;;0.80;0.35;;;17.20;33.50;19.80;93288.00;;;;10402807;28;47546;-66
2022/04/06 01:01:08;;;;;;;0.93;0.60;;;17.10;33.50;19.80;93274.00;;;;10414416;28;48345;-65
2022/04/06 01:06:09;;;;;;;0.75;0.40;;;17.20;33.60;19.80;93280.00;;;;10399532;28;47490;-66
2022/04/06 01:11:09;;;;;;;0.52;0.30;;;17.20;33.60;19.80;93275.00;;;;10418266;28;47032;-66
2022/04/06 01:16:10;;;;;;;0.57;0.40;;;17.20;33.60;19.80;93255.00;;;;10401463;28;47183;-66
2022/04/06 01:21:12;;;;;;;1.08;0.50;;;17.20;33.70;19.80;93265.00;;;;10418394;28;47580;-66
2022/04/06 01:26:13;;;;;;;0.70;0.52;;;17.10;33.70;19.80;93263.00;;;;10402186;28;47141;-66
2022/04/06 01:31:14;;;;;;;1.02;0.52;;;17.10;33.70;19.80;93261.00;;;;10418727;28;45429;-65
2022/04/06 01:36:14;;;;;;;0.98;0.40;;;17.10;33.80;19.80;93253.00;;;;10418485;28;48384;-66
2022/04/06 01:41:15;;;;;;;0.93;0.50;;;17.10;33.80;19.70;93253.00;;;;10418062;28;47259;-66
2022/04/06 01:46:16;;;;;;;1.27;0.43;;;17.10;33.90;19.70;93252.00;;;;10418189;28;46756;-66
2022/04/06 01:56:35;;;;;;;0.90;0.38;;;17.10;34.00;19.70;93248.00;;;;10436169;28;45148;-66
2022/04/06 02:01:36;;;;;;;0.70;0.47;;;17.10;34.10;19.70;93228.00;;;;10417544;28;46719;-64
2022/04/06 02:06:37;;;;;;;0.60;0.30;;;17.00;34.10;19.70;93237.00;;;;10401222;28;47410;-65
2022/04/06 02:11:39;;;;;;;0.60;0.50;;;17.10;34.30;19.70;93230.00;;;;10435104;28;45630;-66
2022/04/06 02:16:40;;;;;;;0.50;0.38;;;17.10;34.30;19.70;93238.00;;;;10417512;28;46748;-66
2022/04/06 02:21:41;;;;;;;0.40;0.35;;;17.00;34.30;19.70;93227.00;;;;10417094;28;45670;-66
2022/04/06 02:26:42;;;;;;;0.68;0.50;;;17.00;34.40;19.70;93220.00;;;;10418052;28;48091;-66
2022/04/06 02:31:43;;;;;;;0.98;0.47;;;17.00;34.50;19.70;93214.00;;;;10424639;28;45234;-66
2022/04/06 02:36:43;;;;;;;0.93;0.40;;;17.10;34.50;19.70;93212.00;;;;10423896;28;47015;-66
2022/04/06 02:41:44;;;;;;;0.70;0.40;;;17.00;34.50;19.70;93211.00;;;;10407146;28;48649;-66
2022/04/06 02:46:46;;;;;;;0.68;0.40;;;17.00;34.50;19.70;93201.00;;;;10423180;28;46419;-66
2022/04/06 02:51:47;;;;;;;0.95;0.60;;;17.00;34.60;19.70;93207.00;;;;10406300;28;46523;-65
2022/04/06 02:56:49;;;;;;;0.75;0.45;;;17.10;34.70;19.70;93198.00;;;;10423131;28;45559;-66
2022/04/06 03:01:49;;;;;;;0.70;0.60;;;17.00;34.70;19.70;93201.00;;;;10406286;28;47083;-66
2022/04/06 03:06:50;;;;;;;1.10;0.50;;;17.00;34.70;19.70;93195.00;;;;10422160;28;46995;-64
2022/04/06 03:11:50;;;;;;;0.50;0.40;;;17.00;34.80;19.70;93178.00;;;;10422208;28;45340;-66
2022/04/06 03:16:51;;;;;;;0.65;0.50;;;17.00;34.70;19.70;93171.00;;;;10422704;28;45432;-66
2022/04/06 03:21:52;;;;;;;0.50;0.40;;;17.00;34.80;19.60;93161.00;;;;10422319;28;48585;-65
2022/04/06 03:26:52;;;;;;;0.68;0.57;;;17.00;34.90;19.70;93171.00;;;;10422594;28;45671;-66
2022/04/06 03:31:53;;;;;;;0.68;0.40;;;17.00;34.90;19.70;93174.00;;;;10422460;28;45535;-66
2022/04/06 03:36:54;;;;;;;0.55;0.43;;;17.00;35.00;19.70;93159.00;;;;10405078;28;47028;-66
2022/04/06 03:41:54;;;;;;;1.35;0.43;;;17.00;34.90;19.70;93156.00;;;;10405133;28;47743;-66
2022/04/06 03:46:56;;;;;;;0.52;0.40;;;17.00;34.90;19.70;93153.00;;;;10421394;28;47346;-65
2022/04/06 03:51:57;;;;;;;0.88;0.60;;;17.00;34.90;19.60;93153.00;;;;10404241;28;47178;-66
2022/04/06 03:56:57;;;;;;;0.60;0.40;;;17.00;34.90;19.60;93153.00;;;;10404440;28;47081;-65
2022/04/06 04:01:58;;;;;;;0.70;0.45;;;17.00;35.00;19.60;93142.00;;;;10420701;28;46940;-65
2022/04/06 04:06:59;;;;;;;1.58;0.50;;;17.00;34.90;19.60;93153.00;;;;10421005;28;46723;-66
2022/04/06 04:12:00;;;;;;;0.55;0.40;;;17.10;35.00;19.70;93145.00;;;;10404180;28;48005;-66
2022/04/06 04:17:01;;;;;;;0.60;0.40;;;17.10;34.90;19.80;93141.00;;;;10420630;28;46185;-66
2022/04/06 04:22:02;;;;;;;0.75;0.52;;;17.20;34.80;19.80;93144.00;;;;10420414;28;45443;-66
2022/04/06 04:27:03;;;;;;;0.90;0.30;;;17.20;34.70;19.90;93134.00;;;;10420251;28;48035;-66
2022/04/06 04:32:05;;;;;;;1.45;0.40;;;17.30;34.70;19.90;93135.00;;;;10420002;28;47091;-66
2022/04/06 04:37:05;;;;;;;0.45;0.30;;;17.40;34.70;19.90;93125.00;;;;10419817;28;47853;-66
2022/04/06 04:42:06;;;;;;;1.02;0.43;;;17.40;34.60;20.00;93138.00;;;;10419863;28;45425;-66
2022/04/06 04:47:07;;;;;;;0.32;0.28;;;17.40;34.50;20.00;93143.00;;;;10419544;28;47215;-65
2022/04/06 04:52:08;;;;;;;1.08;0.43;;;17.40;34.50;20.00;93139.00;;;;10436538;28;45558;-66
2022/04/06 04:57:09;;;;;;;0.43;0.40;;;17.40;34.50;20.00;93130.00;;;;10419056;28;47758;-66
2022/04/06 05:02:09;;;;;;;0.52;0.40;;;17.50;34.50;20.10;93121.00;;;;10419164;28;45670;-65
2022/04/06 05:07:10;;;;;;;0.40;0.30;;;17.50;34.50;20.10;93130.00;;;;10419051;28;46810;-66
2022/04/06 05:12:11;;;;;;;0.40;0.38;;;17.50;34.50;20.10;93119.00;;;;10418567;28;47300;-66
2022/04/06 05:17:11;;;;;;;0.68;0.40;;;17.60;34.50;20.10;93125.00;;;;10436856;28;45269;-66
2022/04/06 05:22:12;;;;;;;0.68;0.30;;;17.60;34.50;20.10;93132.00;;;;10418457;28;47931;-64
2022/04/06 05:27:13;;;;;;;0.45;0.30;;;17.60;34.50;20.20;93136.00;;;;10436347;28;46114;-66
2022/04/06 05:32:14;;;;;;;0.40;0.40;;;17.60;34.50;20.20;93133.00;;;;10418224;28;45454;-66
2022/04/06 05:37:14;;;;;;;0.57;0.32;;;17.60;34.40;20.20;93144.00;;;;10418368;28;46494;-66
2022/04/06 05:42:15;;;;;;;0.30;0.30;;;17.60;34.40;20.20;93138.00;;;;10401666;28;47088;-66
2022/04/06 05:47:17;;;;;;;0.32;0.30;;;17.60;34.50;20.20;93137.00;;;;10417936;28;46965;-66
2022/04/06 05:52:18;;;;;;;0.88;0.40;;;17.60;34.40;20.30;93136.00;;;;10417498;28;48123;-66
2022/04/06 05:57:19;;;;;;;0.93;0.50;;;17.70;34.50;20.30;93135.00;;;;10417650;28;47225;-66
2022/04/06 06:02:23;;;;;;;0.40;0.30;;;17.70;34.50;20.30;93139.00;;;;10421240;28;46624;-66
2022/04/06 06:07:24;;;;;;;0.32;0.30;;;17.70;34.40;20.30;93132.00;;;;10408504;28;47417;-65
2022/04/06 06:12:24;;;;;;;0.95;0.43;;;17.70;34.40;20.30;93126.00;;;;10443204;28;45639;-66
2022/04/06 06:17:25;;;;;;;0.50;0.47;;;17.70;34.40;20.30;93128.00;;;;10424480;28;48104;-66
2022/04/06 06:22:26;;;;;;;0.47;0.40;;;17.70;34.40;20.30;93122.00;;;;10424585;28;47116;-66
2022/04/06 06:27:27;;;;;;;0.30;0.30;;;17.70;34.40;20.40;93126.00;;;;10424698;28;45299;-66
2022/04/06 06:32:27;;;;;;;1.02;0.40;;;17.80;34.50;20.40;93141.00;;;;10423555;28;48161;-67
2022/04/06 06:37:28;;;;;;;0.50;0.30;;;17.80;34.50;20.40;93129.00;;;;10407374;28;47309;-66
2022/04/06 06:42:29;;;;;;;0.70;0.50;;;17.80;34.50;20.40;93119.00;;;;10424169;28;45526;-66
2022/04/06 06:47:29;;;;;;;0.77;0.35;;;17.80;34.50;20.40;93128.00;;;;10423744;28;45448;-66
2022/04/06 06:52:32;;;;;;;0.22;0.20;;;17.80;34.50;20.40;93131.00;;;;10364625;22;48181;-64
2022/04/06 06:57:34;;;;;;;1.20;0.40;;;17.80;34.50;20.40;93119.00;;;;10341240;28;47576;-64
2022/04/06 07:02:34;;;;;;;0.70;0.32;;;17.80;34.50;20.40;93121.00;;;;10358458;28;46248;-64
2022/04/06 07:07:56;;;;;;;1.08;0.40;;;17.80;34.90;20.40;93124.00;;;;10367064;28;45568;-66
2022/04/06 07:12:58;;;;;;;0.30;0.30;;;17.90;34.40;20.40;93114.00;;;;10398568;28;45907;-67
2022/04/06 07:17:59;;;;;;;3.85;0.32;;;17.70;34.70;20.40;93120.00;;;;10383192;28;46898;-66
2022/04/06 07:22:59;;;;;;;0.52;0.30;;;17.80;34.70;20.40;93108.00;;;;10347311;28;47194;-66
2022/04/06 07:28:00;;;;;;;1.52;0.40;;;17.80;34.60;20.40;93125.00;;;;10376596;28;46499;-65
2022/04/06 07:33:01;;;;;;;1.75;0.20;;;17.80;34.40;20.50;93124.00;;;;10398562;28;48252;-66
2022/04/06 07:38:02;;;;;;;0.70;0.40;;;17.90;34.40;20.50;93116.00;;;;10398035;28;46477;-66
2022/04/06 07:43:02;;;;;;;1.02;0.30;;;17.90;34.40;20.50;93117.00;;;;10385468;28;45437;-66
2022/04/06 07:48:04;;;;;;;1.50;0.32;;;17.90;35.00;20.50;93113.00;;;;10357738;28;46499;-65
2022/04/06 07:53:05;;;;;;;1.98;0.40;;;17.90;34.30;20.60;93103.00;;;;10372185;28;46901;-66
2022/04/06 07:58:06;;;;;;;1.48;0.32;;;18.00;34.50;20.60;93114.00;;;;10372146;28;47536;-66
2022/04/06 08:03:07;;;;;;;0.20;0.20;;;18.00;34.80;20.60;93108.00;;;;10355912;28;45393;-66
2022/04/06 08:08:08;;;;;;;0.30;0.20;;;18.00;34.80;20.50;93095.00;;;;10355636;28;45159;-66
2022/04/06 08:13:09;;;;;;;1.63;0.20;;;17.90;34.60;20.60;93095.00;;;;10353963;28;46624;-66
2022/04/06 08:18:11;;;;;;;3.40;0.30;;;18.00;34.60;20.60;93092.00;;;;10353512;28;45250;-66
2022/04/06 08:23:12;;;;;;;0.70;0.22;;;18.00;34.60;20.60;93085.00;;;;10354874;28;45559;-66
2022/04/06 08:28:12;;;;;;;2.08;0.28;;;18.00;34.60;20.60;93086.00;;;;10370120;28;48646;-66
2022/04/06 08:33:14;;;;;;;0.20;0.20;;;18.00;34.50;20.60;93099.00;;;;10358145;28;45393;-67
2022/04/06 08:38:15;;;;;;;0.55;0.20;;;18.00;34.50;20.60;93100.00;;;;10377635;28;46560;-66
2022/04/06 08:43:17;;;;;;;0.35;0.20;;;18.00;34.40;20.60;93097.00;;;;10395495;28;46444;-67
2022/04/06 08:48:20;;;;;;;0.95;0.20;;;18.00;34.40;20.60;93099.00;;;;10395472;28;46316;-66
2022/04/06 08:53:22;;;;;;;1.00;0.10;;;18.00;34.40;20.60;93093.00;;;;10393228;28;47757;-66
2022/04/06 08:58:22;;;;;;;1.05;0.22;;;18.00;34.50;20.60;93100.00;;;;10394198;28;45453;-66
2022/04/06 09:03:24;;;;;;;0.88;0.28;;;18.00;34.50;20.60;93107.00;;;;10393026;28;46501;-66
2022/04/06 09:08:46;;;;;;;0.10;0.10;;;18.00;34.50;20.60;93090.00;;;;10393526;28;45440;-66
2022/04/06 09:13:57;;;;;;;0.20;0.10;;;18.00;34.50;20.60;93088.00;;;;10390192;28;45633;-67
2022/04/06 09:19:07;;;;;;;0.45;0.20;;;18.00;34.50;20.60;93082.00;;;;10311521;28;45979;-66
2022/04/06 09:24:19;;;;;;;0.22;0.20;;;17.90;34.40;20.60;93089.00;;;;10379391;28;45288;-67
2022/04/06 09:29:21;;;;;;;0.45;0.20;;;18.00;34.50;20.60;93093.00;;;;10392650;28;46261;-65
2022/04/06 09:34:23;;;;;;;0.75;0.25;;;18.00;35.00;20.70;93089.00;;;;10379071;28;45487;-67
2022/04/06 09:39:44;;;;;;;0.60;0.20;;;18.10;35.10;20.70;93083.00;;;;10350808;28;45205;-70
2022/04/06 09:50:14;;;;;;;0.20;0.10;;;18.10;35.40;20.70;93079.00;;;;10351092;28;45284;-68
2022/04/06 09:55:17;;;;;;;0.37;0.07;;;18.10;35.40;20.70;93074.00;;;;10353241;28;46165;-68
2022/04/06 10:00:20;;;;;;;0.65;0.10;;;18.10;35.50;20.70;93068.00;;;;10354563;28;46251;-68
2022/04/06 10:05:23;;;;;;;0.43;0.20;;;18.10;35.40;20.70;93048.00;;;;10339961;28;47547;-67
2022/04/06 10:10:24;;;;;;;0.20;0.20;;;18.10;35.50;20.70;93051.00;;;;10335393;28;46893;-69
2022/04/06 10:15:26;;;;;;;0.73;0.20;;;18.10;35.50;20.70;93054.00;;;;10383538;28;45154;-68
2022/04/06 10:20:51;;;;;;;1.73;0.30;;;18.10;35.50;20.70;93049.00;;;;10351971;28;46906;-68
2022/04/06 10:26:26;;;;;;;1.02;0.30;;;18.10;35.50;20.70;93040.00;;;;10382266;28;47467;-68
2022/04/06 10:31:29;;;;;;;0.40;0.30;;;18.10;35.50;20.70;93031.00;;;;10392590;28;47468;-68
2022/04/06 10:36:30;;;;;;;0.93;0.20;;;18.10;35.40;20.70;93031.00;;;;10376471;28;47463;-68
2022/04/06 10:41:39;;;;;;;2.30;0.50;;;18.10;35.60;20.80;93020.00;;;;10392439;28;46387;-68
2022/04/06 10:46:40;;;;;;;0.98;0.30;;;18.10;35.60;20.70;93023.00;;;;10393864;28;45327;-68
2022/04/06 10:51:50;;;;;;;0.47;0.30;;;18.10;35.60;20.70;93008.00;;;;10398536;28;45282;-68
2022/04/06 10:56:50;;;;;;;1.35;0.40;;;18.20;35.50;20.70;93002.00;;;;10399981;28;45362;-68
2022/04/06 11:02:17;;;;;;;2.13;0.40;;;18.10;35.40;20.80;92998.00;;;;10317198;28;45388;-68
2022/04/06 11:10:06;;;;;;;4.13;0.93;;;18.10;35.50;20.80;92988.00;;;;10316849;28;45192;-68
2022/04/06 11:12:59;;;;;;;5.35;1.50;;;18.20;35.60;20.80;92987.00;;;;10316504;28;46188;-67
2022/04/06 11:18:00;;;;;;;5.83;1.20;;;18.20;35.60;20.80;92964.00;;;;10332800;28;46832;-68
2022/04/06 11:23:01;;;;;;;6.22;1.20;;;18.20;35.60;20.80;92965.00;;;;10296289;28;47042;-67
2022/04/06 11:28:13;;;;;;;5.15;1.42;;;18.20;35.70;20.80;92935.00;;;;10255015;28;45339;-67
2022/04/06 11:33:14;;;;;;;7.40;1.52;;;18.20;35.80;20.80;92951.00;;;;10259585;28;46403;-68
2022/04/06 11:38:15;;;;;;;6.63;1.80;;;18.20;35.80;20.80;92928.00;;;;10283703;28;45340;-68
2022/04/06 11:43:16;;;;;;;4.18;1.33;;;18.20;35.80;20.90;92923.00;;;;10262094;28;46273;-68
2022/04/06 11:48:16;;;;;;;7.15;1.60;;;18.20;35.70;20.90;92912.00;;;;10289857;28;47928;-67
2022/04/06 11:53:21;;;;;;;8.00;1.60;;;18.30;35.80;20.90;92926.00;;;;10247060;28;45397;-67
2022/04/06 11:58:32;;;;;;;5.75;1.67;;;18.20;35.70;20.80;92915.00;;;;10249228;28;46100;-68
2022/04/06 12:03:36;;;;;;;3.83;1.38;;;18.20;35.90;20.80;92918.00;;;;10284675;28;47161;-67
2022/04/06 12:08:39;;;;;;;5.75;1.48;;;18.20;35.90;20.80;92907.00;;;;10263712;28;47664;-68
2022/04/06 12:13:44;;;;;;;3.38;1.40;;;18.20;35.90;20.90;92887.00;;;;10287863;28;46319;-68
2022/04/06 12:18:44;;;;;;;5.05;1.50;;;18.30;35.80;20.90;92909.00;;;;10290613;28;45576;-68
2022/04/06 12:23:45;;;;;;;4.97;1.25;;;18.30;35.80;20.80;92881.00;;;;10258026;28;47894;-68
2022/04/06 12:28:59;;;;;;;3.72;1.20;;;18.20;35.80;20.90;92899.00;;;;10274312;28;45302;-66
2022/04/06 12:34:00;;;;;;;4.43;1.17;;;18.30;36.20;20.90;92891.00;;;;10273027;28;45652;-66
2022/04/06 12:39:11;;;;;;;3.88;1.15;;;18.40;36.00;20.90;92876.00;;;;10272850;28;46281;-66
2022/04/06 12:44:15;;;;;;;3.13;1.05;;;18.30;36.00;20.90;92891.00;;;;10272408;28;45865;-66
2022/04/06 12:49:36;;;;;;;3.13;0.73;;;18.30;36.00;20.90;92878.00;;;;10272007;28;45203;-66
2022/04/06 12:54:39;;;;;;;3.13;1.00;;;18.30;35.90;20.80;92882.00;;;;10273152;28;45435;-67
2022/04/06 12:59:42;;;;;;;4.25;1.10;;;18.30;35.90;20.90;92873.00;;;;10272321;28;45311;-67
2022/04/06 13:04:43;;;;;;;3.47;1.05;;;18.30;35.80;20.80;92872.00;;;;10272572;28;47743;-67
2022/04/06 13:09:55;;;;;;;3.53;1.00;;;18.30;35.80;20.90;92861.00;;;;10253400;28;47108;-67
2022/04/06 13:14:59;;;;;;;1.85;0.90;;;18.30;35.80;20.90;92855.00;;;;10286578;28;46968;-66
2022/04/06 13:19:59;;;;;;;3.10;0.88;;;18.30;35.70;20.90;92849.00;;;;10298660;28;46255;-66
2022/04/06 13:25:00;;;;;;;2.88;0.80;;;18.30;35.90;20.90;92838.00;;;;10272096;28;47301;-66
2022/04/06 13:30:01;;;;;;;2.20;0.90;;;18.30;35.90;20.90;92846.00;;;;10269075;28;45482;-66
2022/04/06 13:35:05;;;;;;;2.90;1.00;;;18.30;35.80;21.00;92833.00;;;;10274287;28;48236;-63
2022/04/06 13:40:07;;;;;;;3.17;0.90;;;18.30;36.00;21.00;92830.00;;;;10272151;28;46976;-63
2022/04/06 13:45:08;;;;;;;2.38;0.80;;;18.30;35.80;20.90;92818.00;;;;10272720;28;45857;-63
2022/04/06 13:50:09;;;;;;;3.55;0.90;;;18.40;35.80;20.90;92809.00;;;;10270208;28;45174;-63
2022/04/06 13:55:11;;;;;;;2.80;0.73;;;18.40;35.80;20.90;92809.00;;;;10271677;28;45531;-63
2022/04/06 14:00:14;;;;;;;2.05;0.70;;;18.30;35.80;20.90;92806.00;;;;10270460;28;46745;-62
2022/04/06 14:05:19;;;;;;;1.98;0.70;;;18.30;35.80;20.90;92804.00;;;;10272334;28;45368;-63
2022/04/06 14:10:19;;;;;;;2.40;0.90;;;18.30;35.90;20.90;92815.00;;;;10270288;28;47249;-63
2022/04/06 14:15:22;;;;;;;4.00;0.85;;;18.30;35.90;20.90;92807.00;;;;10271572;28;45237;-63
2022/04/06 14:20:24;;;;;;;1.42;0.80;;;18.30;36.00;20.90;92805.00;;;;10270187;28;47299;-63
2022/04/06 14:25:25;;;;;;;0.65;0.43;;;18.30;36.10;20.90;92797.00;;;;10292399;28;47339;-66
2022/04/06 14:30:26;;;;;;;1.83;0.52;;;18.30;36.10;20.90;92809.00;;;;10279391;28;46431;-65
2022/04/06 14:35:27;;;;;;;2.38;0.60;;;18.40;36.40;20.90;92778.00;;;;10276903;28;46516;-65
2022/04/06 14:40:28;;;;;;;1.70;0.60;;;18.40;36.10;20.90;92794.00;;;;10247913;28;48166;-64
2022/04/06 14:45:28;;;;;;;1.40;0.70;;;18.30;36.00;21.00;92791.00;;;;10277179;28;45217;-64
2022/04/06 14:50:29;;;;;;;1.08;0.60;;;18.30;36.00;21.00;92787.00;;;;10292910;28;45398;-64
2022/04/06 14:55:30;;;;;;;1.38;0.60;;;18.30;36.00;21.00;92762.00;;;;10293377;28;45564;-68
2022/04/06 15:00:31;;;;;;;1.63;0.70;;;18.30;36.10;21.00;92770.00;;;;10288266;28;47154;-69
2022/04/06 15:05:34;;;;;;;1.50;0.60;;;18.40;36.70;21.00;92763.00;;;;10273500;28;45255;-67
2022/04/06 15:10:35;;;;;;;2.47;0.60;;;18.40;36.80;21.10;92778.00;;;;10263823;28;47008;-66
2022/04/06 15:15:38;;;;;;;1.50;0.60;;;18.40;37.00;21.00;92769.00;;;;10276629;28;47214;-66
2022/04/06 15:20:38;;;;;;;1.13;0.50;;;18.40;36.80;21.00;92767.00;;;;10276311;28;46921;-66
2022/04/06 15:25:44;;;;;;;1.95;0.50;;;18.40;36.60;21.00;92761.00;;;;10281317;28;47739;-66
2022/04/06 15:30:45;;;;;;;1.55;0.50;;;18.40;36.50;21.00;92759.00;;;;10260055;28;47054;-66
2022/04/06 15:41:05;;;;;;;0.80;0.40;;;18.40;36.50;21.10;92740.00;;;;10276584;28;45191;-70
2022/04/06 15:46:06;;;;;;;1.25;0.55;;;18.40;36.60;21.10;92745.00;;;;10278469;28;45131;-68
2022/04/06 15:51:06;;;;;;;1.65;0.52;;;18.40;36.70;21.10;92744.00;;;;10293397;28;46919;-69
2022/04/06 15:56:14;;;;;;;0.98;0.70;;;18.40;36.90;21.10;92747.00;;;;10261902;28;47273;-66
2022/04/06 16:01:15;;;;;;;0.63;0.30;;;18.40;36.70;21.20;92745.00;;;;10260616;28;47192;-66
2022/04/06 16:06:16;;;;;;;0.90;0.40;;;18.50;36.70;21.10;92750.00;;;;10276699;28;45675;-62
2022/04/06 16:11:17;;;;;;;1.38;0.40;;;18.50;36.70;21.10;92748.00;;;;10277020;28;46738;-64
2022/04/06 16:16:18;;;;;;;3.05;0.40;;;18.50;36.70;21.20;92751.00;;;;10235183;28;46653;-64
2022/04/06 16:21:19;;;;;;;0.40;0.22;;;18.50;36.90;21.20;92748.00;;;;10237455;28;46654;-63
2022/04/06 16:26:20;;;;;;;1.05;0.50;;;18.50;37.20;21.10;92745.00;;;;10257505;28;48251;-66
2022/04/06 16:31:23;;;;;;;1.13;0.50;;;18.50;37.00;21.20;92735.00;;;;10290576;28;45497;-67
2022/04/06 16:36:24;;;;;;;3.13;0.60;;;18.50;36.90;21.20;92736.00;;;;10276394;28;45637;-67
2022/04/06 16:41:25;;;;;;;1.85;0.30;;;18.50;37.00;21.20;92717.00;;;;10302999;28;47972;-68
2022/04/06 16:46:29;;;;;;;1.02;0.50;;;18.60;37.10;21.20;92714.00;;;;10260212;28;48246;-67
2022/04/06 16:56:54;;;;;;;0.80;0.50;;;18.60;36.90;21.20;92733.00;;;;10272803;28;45770;-66
2022/04/06 17:01:54;;;;;;;0.70;0.43;;;18.60;36.80;21.20;92718.00;;;;10272740;28;47600;-63
2022/04/06 17:06:55;;;;;;;1.10;0.55;;;18.60;36.70;21.20;92721.00;;;;10284514;28;45317;-63
2022/04/06 17:11:55;;;;;;;1.20;0.55;;;18.60;36.60;21.20;92729.00;;;;10281626;28;47380;-62
2022/04/06 17:16:57;;;;;;;1.88;0.60;;;18.60;36.40;21.20;92718.00;;;;10282667;28;45628;-63
2022/04/06 17:21:57;;;;;;;0.70;0.30;;;18.50;36.30;21.20;92728.00;;;;10275098;28;47589;-64
2022/04/06 17:26:58;;;;;;;0.98;0.40;;;18.60;36.30;21.20;92719.00;;;;10270555;28;45274;-63
2022/04/06 17:31:59;;;;;;;1.50;0.60;;;18.60;36.10;21.10;92721.00;;;;10271839;28;45158;-64
2022/04/06 17:37:00;;;;;;;2.42;0.40;;;18.60;36.20;21.10;92716.00;;;;10270718;28;45548;-64
2022/04/06 17:42:01;;;;;;;0.50;0.40;;;18.60;36.10;21.10;92712.00;;;;10254637;28;46959;-64
2022/04/06 17:47:03;;;;;;;0.80;0.50;;;18.60;36.10;21.10;92707.00;;;;10271703;28;45255;-64
2022/04/06 17:52:04;;;;;;;2.08;0.68;;;18.60;35.90;21.10;92717.00;;;;10270881;28;46244;-64
2022/04/06 17:57:08;;;;;;;0.90;0.57;;;18.60;35.90;21.10;92718.00;;;;10272981;28;46186;-64
2022/04/06 18:02:09;;;;;;;2.10;0.65;;;18.60;35.80;21.10;92733.00;;;;10280658;28;47956;-64
2022/04/06 18:07:10;;;;;;;0.70;0.45;;;18.60;35.80;21.10;92739.00;;;;10293709;28;46332;-64
2022/04/06 18:17:30;;;;;;;0.77;0.50;;;18.50;35.70;21.10;92738.00;;;;10252617;28;45654;-64
2022/04/06 18:22:32;;;;;;;0.90;0.38;;;18.50;35.80;21.10;92736.00;;;;10238875;28;45366;-64
2022/04/06 18:27:33;;;;;;;1.17;0.55;;;18.50;36.10;21.10;92729.00;;;;10221215;28;47614;-64
2022/04/06 18:32:35;;;;;;;0.63;0.40;;;18.50;35.70;21.00;92724.00;;;;10237283;28;47605;-65
2022/04/06 18:37:36;;;;;;;0.50;0.30;;;18.50;35.80;21.10;92731.00;;;;10238136;28;45311;-63
2022/04/06 18:42:37;;;;;;;0.70;0.40;;;18.50;35.70;21.10;92744.00;;;;10236893;28;45174;-64
2022/04/06 18:47:38;;;;;;;0.38;0.32;;;18.50;35.60;21.10;92750.00;;;;10236826;28;47713;-64
2022/04/06 18:52:40;;;;;;;0.88;0.50;;;18.50;35.60;21.00;92747.00;;;;10236371;28;47629;-63
2022/04/06 18:57:41;;;;;;;0.80;0.40;;;18.50;35.60;21.10;92725.00;;;;10236414;28;47034;-63
2022/04/06 19:02:42;;;;;;;1.13;0.30;;;18.50;35.60;21.10;92749.00;;;;10236207;28;46271;-63
2022/04/06 19:07:43;;;;;;;0.52;0.40;;;18.50;35.60;21.00;92743.00;;;;10235298;28;47258;-63
2022/04/06 19:12:44;;;;;;;0.32;0.28;;;18.50;35.60;21.00;92756.00;;;;10218918;28;46619;-63
2022/04/06 19:17:44;;;;;;;1.10;0.70;;;18.50;35.50;21.00;92757.00;;;;10236176;28;45276;-63
2022/04/06 19:22:45;;;;;;;0.52;0.30;;;18.50;35.50;21.00;92768.00;;;;10235808;28;46259;-63
2022/04/06 19:27:46;;;;;;;1.25;0.47;;;18.50;35.40;21.00;92783.00;;;;10235361;28;46931;-63
2022/04/06 19:32:47;;;;;;;0.85;0.32;;;18.50;35.40;21.00;92777.00;;;;10236440;28;45509;-63
2022/04/06 19:37:49;;;;;;;0.30;0.30;;;18.50;35.40;21.00;92788.00;;;;10236493;28;45192;-63
2022/04/06 19:42:49;;;;;;;0.35;0.30;;;18.50;36.10;21.00;92800.00;;;;10236501;28;45170;-63
2022/04/06 19:47:50;;;;;;;0.47;0.30;;;18.50;35.30;21.00;92786.00;;;;10241253;28;46290;-63
2022/04/06 19:52:51;;;;;;;0.20;0.17;;;18.50;35.40;21.00;92793.00;;;;10289720;28;46505;-63
2022/04/06 19:57:51;;;;;;;0.55;0.25;;;18.50;35.30;21.00;92795.00;;;;10290378;28;46972;-63
2022/04/06 20:02:52;;;;;;;0.60;0.30;;;18.40;35.20;21.00;92786.00;;;;10291108;28;45632;-63
2022/04/06 20:07:53;;;;;;;0.20;0.20;;;18.40;35.30;21.00;92790.00;;;;10275420;28;46456;-63
2022/04/06 20:12:53;;;;;;;0.17;0.17;;;18.40;35.20;21.00;92784.00;;;;10274138;28;47176;-63
2022/04/06 20:17:54;;;;;;;0.77;0.20;;;18.40;35.20;20.90;92785.00;;;;10275637;28;45254;-63
2022/04/06 20:22:54;;;;;;;0.30;0.20;;;18.30;35.30;20.90;92791.00;;;;10289982;28;45614;-63
2022/04/06 20:27:56;;;;;;;0.25;0.25;;;18.30;35.40;20.90;92794.00;;;;10290123;28;46683;-63
2022/04/06 20:32:57;;;;;;;0.40;0.20;;;18.30;35.40;20.90;92786.00;;;;10289763;28;45547;-63
2022/04/06 20:37:58;;;;;;;0.50;0.22;;;18.30;35.40;20.90;92783.00;;;;10274692;28;46389;-63
2022/04/06 20:42:58;;;;;;;0.40;0.20;;;18.20;35.40;20.80;92777.00;;;;10269697;28;46567;-63
2022/04/06 20:47:59;;;;;;;0.25;0.20;;;18.20;35.40;20.80;92773.00;;;;10272251;28;45354;-63
2022/04/06 20:52:59;;;;;;;0.20;0.20;;;18.10;35.40;20.70;92761.00;;;;10288942;28;45360;-63
2022/04/06 20:58:00;;;;;;;0.28;0.20;;;18.10;35.50;20.70;92760.00;;;;10289445;28;45303;-63
2022/04/06 21:03:02;;;;;;;0.57;0.25;;;18.00;35.50;20.70;92760.00;;;;10289236;28;45342;-63
2022/04/06 21:08:03;;;;;;;0.20;0.20;;;18.00;35.40;20.70;92758.00;;;;10288850;28;45498;-63
2022/04/06 21:13:04;;;;;;;0.20;0.17;;;18.00;35.40;20.70;92761.00;;;;10288780;28;47056;-63
2022/04/06 21:18:05;;;;;;;0.10;0.10;;;18.00;35.50;20.70;92758.00;;;;10288658;28;45318;-63
2022/04/06 21:23:05;;;;;;;0.20;0.20;;;18.00;35.40;20.60;92758.00;;;;10288710;28;45376;-63
2022/04/06 21:28:06;;;;;;;0.30;0.10;;;18.00;35.50;20.60;92745.00;;;;10288205;28;46972;-63
2022/04/06 21:33:07;;;;;;;0.35;0.10;;;17.90;35.50;20.60;92740.00;;;;10271168;28;48280;-63
2022/04/06 21:38:08;;;;;;;0.40;0.20;;;17.90;35.50;20.60;92741.00;;;;10287606;28;47049;-63
2022/04/06 21:43:08;;;;;;;0.10;0.10;;;18.00;35.50;20.50;92749.00;;;;10287620;28;45624;-63
2022/04/06 21:48:09;;;;;;;0.10;0.10;;;17.90;35.50;20.50;92735.00;;;;10288255;28;45415;-63
2022/04/06 21:53:12;;;;;;;0.38;0.17;;;17.80;35.50;20.50;92745.00;;;;10272347;28;45160;-63
2022/04/06 21:58:12;;;;;;;0.17;0.10;;;17.80;35.50;20.50;92734.00;;;;10271247;28;47052;-63
2022/04/06 22:03:13;;;;;;;0.20;0.20;;;17.90;35.50;20.50;92726.00;;;;10272469;28;45419;-63
2022/04/06 22:08:14;;;;;;;0.60;0.10;;;17.90;35.40;20.50;92739.00;;;;10287571;28;45223;-62
2022/04/06 22:13:15;;;;;;;0.35;0.20;;;17.90;35.50;20.50;92720.00;;;;10287265;28;47043;-62
2022/04/06 22:18:18;;;;;;;0.22;0.17;;;17.80;35.60;20.50;92718.00;;;;10270698;28;48066;-62
2022/04/06 22:23:19;;;;;;;0.20;0.10;;;17.80;35.60;20.50;92725.00;;;;10272198;28;45240;-63
2022/04/06 22:28:19;;;;;;;0.20;0.20;;;17.80;35.60;20.40;92728.00;;;;10286774;28;46440;-63
2022/04/06 22:33:20;;;;;;;0.10;0.10;;;17.80;35.60;20.40;92729.00;;;;10272046;28;45310;-63